Time;durP1;ratioP1;P1;durP2;ratioP2;P2;SDS_P1;SDS_P2;PMS_P1;PMS_P2;Temp;Humidity;BMP_temperature;BMP_pressure;BME280_temperature;BME280_humidity;BME280_pressure;Samples;Min_cycle;Max_cycle;Signal;HPM_P1;HPM_P2
2022/05/12 00:00:12;;;;;;;2.63;1.95;;;25.50;43.30;;;;;;10091484;28;20086;-69
2022/05/12 00:05:04;;;;;;;3.55;2.28;;;25.50;43.60;;;;;;10093539;28;20541;-69
2022/05/12 00:09:56;;;;;;;4.97;2.17;;;25.50;43.60;;;;;;10091727;28;20017;-69
2022/05/12 00:14:47;;;;;;;5.28;1.90;;;25.40;43.90;;;;;;10093782;28;20044;-68
2022/05/12 00:19:38;;;;;;;3.75;2.15;;;25.30;43.80;;;;;;10095055;28;20032;-68
2022/05/12 00:24:29;;;;;;;4.78;2.15;;;25.20;44.30;;;;;;10096903;28;20144;-68
2022/05/12 00:29:19;;;;;;;3.35;1.80;;;25.20;44.60;;;;;;10094163;28;20021;-68
2022/05/12 00:34:12;;;;;;;2.00;1.80;;;25.10;44.60;;;;;;10091188;28;20077;-68
2022/05/12 00:39:04;;;;;;;3.83;2.55;;;25.20;44.80;;;;;;10075383;28;20510;-68
2022/05/12 00:44:02;;;;;;;4.10;2.20;;;25.20;45.00;;;;;;10082689;28;20028;-68
2022/05/12 00:49:01;;;;;;;7.30;2.28;;;25.10;45.30;;;;;;10092545;28;20136;-68
2022/05/12 00:53:54;;;;;;;6.05;2.40;;;25.00;45.70;;;;;;10077662;28;20036;-67
2022/05/12 00:58:48;;;;;;;2.42;1.90;;;25.00;46.00;;;;;;10086764;28;20131;-67
2022/05/12 01:03:41;;;;;;;5.53;1.88;;;25.00;46.10;;;;;;10092163;28;20043;-67
2022/05/12 01:08:33;;;;;;;4.28;2.10;;;25.00;46.40;;;;;;10088995;28;20029;-68
2022/05/12 01:13:24;;;;;;;3.67;1.98;;;24.80;46.80;;;;;;10078482;28;20418;-67
2022/05/12 01:18:17;;;;;;;3.83;1.95;;;24.70;47.10;;;;;;10071655;28;20024;-67
2022/05/12 01:23:33;;;;;;;2.85;1.88;;;24.50;47.50;;;;;;10095905;28;20051;-67
2022/05/12 01:28:25;;;;;;;3.67;1.75;;;24.50;48.10;;;;;;10084945;28;20031;-67
2022/05/12 01:33:15;;;;;;;2.47;2.00;;;24.40;48.20;;;;;;10094487;28;20120;-67
2022/05/12 01:38:06;;;;;;;2.20;1.98;;;24.30;48.20;;;;;;10084773;28;20143;-67
2022/05/12 01:42:57;;;;;;;5.80;1.73;;;24.30;48.40;;;;;;10078239;28;20075;-67
2022/05/12 01:47:50;;;;;;;2.55;2.28;;;24.20;48.60;;;;;;10077074;28;20109;-66
2022/05/12 01:52:44;;;;;;;3.65;1.77;;;24.20;48.30;;;;;;10083683;28;20052;-65
2022/05/12 01:57:35;;;;;;;4.60;1.77;;;24.10;48.60;;;;;;10095031;28;20059;-67
2022/05/12 02:02:28;;;;;;;4.57;1.90;;;24.10;48.70;;;;;;10091382;28;20034;-65
2022/05/12 02:07:18;;;;;;;1.88;1.40;;;23.80;49.10;;;;;;10080799;28;20544;-67
2022/05/12 02:12:09;;;;;;;2.35;1.30;;;24.00;49.30;;;;;;10096202;28;20021;-66
2022/05/12 02:17:00;;;;;;;2.80;1.65;;;24.00;49.10;;;;;;10095592;28;20430;-66
2022/05/12 02:21:50;;;;;;;5.53;1.77;;;23.80;49.50;;;;;;10093835;28;20042;-68
2022/05/12 02:26:41;;;;;;;2.38;1.38;;;23.70;49.80;;;;;;10095188;28;20402;-65
2022/05/12 02:31:32;;;;;;;2.80;1.48;;;23.70;49.80;;;;;;10095204;28;20025;-66
2022/05/12 02:36:23;;;;;;;1.83;1.30;;;23.80;49.80;;;;;;10095012;28;20143;-66
2022/05/12 02:41:14;;;;;;;2.72;1.27;;;23.70;50.20;;;;;;10094639;28;20021;-65
2022/05/12 02:46:12;;;;;;;3.45;1.75;;;23.60;50.30;;;;;;10094297;28;20037;-65
2022/05/12 02:51:04;;;;;;;4.35;1.70;;;23.80;50.20;;;;;;10091235;28;20021;-64
2022/05/12 02:55:55;;;;;;;3.65;1.30;;;23.80;50.30;;;;;;10088396;28;20056;-65
2022/05/12 03:00:50;;;;;;;3.25;1.45;;;23.80;50.20;;;;;;10088667;28;20029;-66
2022/05/12 03:05:41;;;;;;;2.92;1.55;;;23.60;50.50;;;;;;10075964;28;20029;-64
2022/05/12 03:10:33;;;;;;;4.43;1.83;;;23.40;50.80;;;;;;10074735;28;20045;-64
2022/05/12 03:15:23;;;;;;;1.20;1.00;;;23.30;50.90;;;;;;10073089;28;20331;-64
2022/05/12 03:20:19;;;;;;;5.45;1.38;;;23.20;51.30;;;;;;10073419;28;20085;-67
2022/05/12 03:25:12;;;;;;;0.75;0.65;;;23.10;51.50;;;;;;10067326;28;20059;-66
2022/05/12 03:30:07;;;;;;;1.60;0.90;;;23.00;51.70;;;;;;10068887;28;20025;-65
2022/05/12 03:34:57;;;;;;;1.80;1.05;;;23.10;51.60;;;;;;10088665;28;20499;-65
2022/05/12 03:39:48;;;;;;;1.05;0.95;;;23.00;51.90;;;;;;10072962;28;20025;-67
2022/05/12 03:44:49;;;;;;;1.73;0.95;;;23.00;51.90;;;;;;10073134;28;20021;-67
2022/05/12 03:49:41;;;;;;;1.52;1.02;;;23.00;52.10;;;;;;10078382;28;20077;-65
2022/05/12 03:54:32;;;;;;;1.63;1.20;;;22.90;52.00;;;;;;10092149;28;20044;-64
2022/05/12 03:59:23;;;;;;;1.42;1.00;;;22.80;52.50;;;;;;10091406;28;20032;-64
2022/05/12 04:04:14;;;;;;;1.58;1.25;;;22.70;52.70;;;;;;10083148;28;20068;-64
2022/05/12 04:09:04;;;;;;;2.05;1.30;;;22.60;53.10;;;;;;10091758;28;20130;-65
2022/05/12 04:13:55;;;;;;;3.42;1.45;;;22.50;53.30;;;;;;10091090;28;20025;-64
2022/05/12 04:18:46;;;;;;;1.73;0.90;;;22.30;53.80;;;;;;10092055;28;20265;-65
2022/05/12 04:23:38;;;;;;;3.67;1.27;;;22.20;54.20;;;;;;10091292;28;20049;-66
2022/05/12 04:28:29;;;;;;;1.48;1.10;;;22.20;54.50;;;;;;10091872;28;20032;-64
2022/05/12 04:38:29;;;;;;;2.20;0.88;;;22.00;55.70;;;;;;10099974;28;20044;-64
2022/05/12 04:43:20;;;;;;;1.77;1.00;;;21.90;56.30;;;;;;10099758;28;20398;-65
2022/05/12 04:48:10;;;;;;;1.20;1.00;;;21.90;56.40;;;;;;10111351;28;20037;-65
2022/05/12 04:53:02;;;;;;;2.50;0.93;;;21.80;56.90;;;;;;10093746;28;20050;-66
2022/05/12 04:57:55;;;;;;;3.15;1.10;;;21.70;57.30;;;;;;10096992;28;20689;-65
2022/05/12 05:02:46;;;;;;;2.40;1.15;;;21.70;57.50;;;;;;10090186;28;20027;-67
2022/05/12 05:07:38;;;;;;;1.95;1.17;;;21.80;57.80;;;;;;10074608;28;20116;-67
2022/05/12 05:12:29;;;;;;;3.50;1.20;;;21.90;57.80;;;;;;10079207;28;20117;-65
2022/05/12 05:17:19;;;;;;;2.33;1.75;;;21.90;58.10;;;;;;10079907;28;20123;-67
2022/05/12 05:22:10;;;;;;;2.95;1.10;;;21.80;58.40;;;;;;10098750;28;20044;-65
2022/05/12 05:27:01;;;;;;;4.88;1.67;;;22.00;58.30;;;;;;10098899;28;20495;-66
2022/05/12 05:31:52;;;;;;;3.25;1.55;;;22.00;58.60;;;;;;10098869;28;20021;-65
2022/05/12 05:36:45;;;;;;;3.63;1.17;;;22.00;58.80;;;;;;10097895;28;20037;-67
2022/05/12 05:41:37;;;;;;;3.58;1.23;;;21.90;59.00;;;;;;10098364;28;20044;-72
2022/05/12 05:46:28;;;;;;;3.40;1.17;;;21.90;59.30;;;;;;10097706;28;20029;-66
2022/05/12 05:56:28;;;;;;;3.80;1.23;;;22.20;59.30;;;;;;10074494;28;20126;-66
2022/05/12 06:01:19;;;;;;;1.45;1.08;;;22.40;59.20;;;;;;10087945;28;20050;-70
2022/05/12 06:06:09;;;;;;;2.47;0.98;;;22.30;59.10;;;;;;10084215;28;20030;-68
2022/05/12 06:11:04;;;;;;;3.20;1.23;;;22.20;59.70;;;;;;10076230;28;20475;-66
2022/05/12 06:15:54;;;;;;;1.83;1.05;;;22.10;59.70;;;;;;10086642;28;20051;-67
2022/05/12 06:20:47;;;;;;;3.60;0.93;;;22.20;60.10;;;;;;10098029;28;20112;-69
2022/05/12 06:25:45;;;;;;;6.15;1.30;;;22.40;59.90;;;;;;10077957;28;20057;-69
2022/05/12 06:30:38;;;;;;;3.65;1.30;;;22.40;60.00;;;;;;10096424;28;20024;-66
2022/05/12 06:35:29;;;;;;;8.23;1.40;;;22.30;60.10;;;;;;10092643;28;20064;-62
2022/05/12 06:40:20;;;;;;;1.90;1.30;;;22.40;60.10;;;;;;10077236;28;20025;-67
2022/05/12 06:45:14;;;;;;;2.72;1.33;;;22.50;59.90;;;;;;10091765;28;20025;-66
2022/05/12 06:50:06;;;;;;;4.20;1.30;;;22.60;60.00;;;;;;10092533;28;20021;-63
2022/05/12 06:54:57;;;;;;;3.42;1.50;;;22.60;60.10;;;;;;10091920;28;20460;-68
2022/05/12 06:59:47;;;;;;;2.70;1.30;;;22.40;60.20;;;;;;10083567;28;20017;-65
2022/05/12 07:04:39;;;;;;;2.35;1.30;;;22.40;60.50;;;;;;10092142;28;20082;-67
2022/05/12 07:09:31;;;;;;;3.10;1.40;;;22.70;60.10;;;;;;10088575;28;20424;-65
2022/05/12 07:14:22;;;;;;;2.05;1.30;;;22.70;60.30;;;;;;10090881;28;20111;-65
2022/05/12 07:19:15;;;;;;;1.98;1.25;;;22.90;60.80;;;;;;10089900;28;20119;-62
2022/05/12 07:29:19;;;;;;;2.58;1.30;;;23.10;59.90;;;;;;10091582;28;20094;-65
2022/05/12 07:34:10;;;;;;;1.10;1.00;;;23.00;59.70;;;;;;10089631;28;20036;-65
2022/05/12 07:39:02;;;;;;;1.45;1.08;;;22.80;60.20;;;;;;10086937;28;20491;-63
2022/05/12 07:43:54;;;;;;;1.80;1.15;;;22.80;60.40;;;;;;10083181;28;20043;-66
2022/05/12 07:48:44;;;;;;;1.52;1.10;;;22.90;60.00;;;;;;10091051;28;20051;-62
2022/05/12 07:53:37;;;;;;;2.58;1.48;;;22.90;60.10;;;;;;10089882;28;20047;-61
2022/05/12 07:58:27;;;;;;;2.17;1.17;;;22.90;60.10;;;;;;10086764;28;20143;-62
2022/05/12 08:03:18;;;;;;;3.67;1.40;;;23.00;60.10;;;;;;10072137;28;20570;-63
2022/05/12 08:08:11;;;;;;;4.32;1.65;;;23.00;60.00;;;;;;10072927;28;20404;-65
2022/05/12 08:13:01;;;;;;;2.08;1.40;;;22.90;60.10;;;;;;10078884;28;20028;-64
2022/05/12 08:17:53;;;;;;;5.55;1.40;;;23.00;60.00;;;;;;10083204;28;20043;-62
2022/05/12 08:22:43;;;;;;;2.42;1.55;;;23.00;59.90;;;;;;10081927;28;20515;-63
2022/05/12 08:27:35;;;;;;;1.55;1.17;;;23.40;59.50;;;;;;10066553;28;20029;-63
2022/05/12 08:32:25;;;;;;;2.17;1.42;;;23.40;59.50;;;;;;10087521;28;20021;-69
2022/05/12 08:37:17;;;;;;;2.08;1.00;;;23.20;59.80;;;;;;10088570;28;20037;-63
2022/05/12 08:42:30;;;;;;;3.08;1.65;;;23.20;60.00;;;;;;10072915;28;20307;-62
2022/05/12 08:47:27;;;;;;;2.65;1.33;;;23.30;59.70;;;;;;10077942;28;20301;-63
2022/05/12 08:52:24;;;;;;;2.22;1.48;;;23.50;59.50;;;;;;10058377;28;20252;-65
2022/05/12 08:57:35;;;;;;;2.65;1.35;;;23.70;59.00;;;;;;10086298;28;20041;-65
2022/05/12 09:02:45;;;;;;;2.30;1.90;;;23.70;58.80;;;;;;10087330;28;20017;-61
2022/05/12 09:08:01;;;;;;;1.98;1.40;;;23.80;58.80;;;;;;10084750;28;20104;-66
2022/05/12 09:13:01;;;;;;;2.17;1.40;;;24.00;58.70;;;;;;10042928;28;20271;-62
2022/05/12 09:17:57;;;;;;;2.58;1.38;;;24.10;58.40;;;;;;10085182;28;20458;-63
2022/05/12 09:22:48;;;;;;;3.50;1.50;;;24.40;57.90;;;;;;10091417;28;20120;-64
2022/05/12 09:27:40;;;;;;;2.17;1.70;;;24.40;57.80;;;;;;10096981;28;20060;-64
2022/05/12 09:32:34;;;;;;;4.05;1.52;;;24.30;57.80;;;;;;10076760;28;20060;-64
2022/05/12 09:37:27;;;;;;;2.60;1.60;;;24.50;57.60;;;;;;10087984;28;20103;-63
2022/05/12 09:42:29;;;;;;;4.13;1.90;;;24.70;57.90;;;;;;10082649;28;20445;-62
2022/05/12 09:47:20;;;;;;;2.45;1.90;;;25.00;56.60;;;;;;10070645;28;20049;-62
2022/05/12 09:52:37;;;;;;;1.85;1.35;;;25.20;56.60;;;;;;10094349;28;20056;-65
2022/05/12 09:57:27;;;;;;;2.13;1.60;;;25.50;55.90;;;;;;10093632;28;20056;-64
2022/05/12 10:12:51;;;;;;;3.03;1.58;;;25.50;55.50;;;;;;10072211;28;20100;-64
2022/05/12 10:17:50;;;;;;;5.00;1.65;;;25.70;55.00;;;;;;10077282;28;20021;-63
2022/05/12 10:22:47;;;;;;;3.78;1.60;;;25.80;54.40;;;;;;10094011;28;20267;-67
2022/05/12 10:28:00;;;;;;;2.92;2.03;;;25.90;54.40;;;;;;10061980;28;20109;-66
2022/05/12 10:33:02;;;;;;;3.45;1.80;;;26.00;54.10;;;;;;10093695;28;20029;-62
2022/05/12 10:38:11;;;;;;;4.00;1.50;;;26.20;54.10;;;;;;10094966;28;20025;-64
2022/05/12 10:43:28;;;;;;;1.60;1.40;;;26.20;54.00;;;;;;10085571;28;20017;-66
2022/05/12 10:48:25;;;;;;;1.60;1.40;;;26.30;53.90;;;;;;10095318;28;20032;-64
2022/05/12 10:53:23;;;;;;;3.63;1.67;;;26.30;53.90;;;;;;10083711;28;20035;-63
2022/05/12 10:58:26;;;;;;;3.70;2.22;;;26.20;54.00;;;;;;10093358;28;20057;-65
2022/05/12 11:03:21;;;;;;;2.63;1.33;;;26.20;54.20;;;;;;10084376;28;20048;-65
2022/05/12 11:08:17;;;;;;;3.33;1.58;;;26.50;53.80;;;;;;10074277;28;20027;-63
2022/05/12 11:13:28;;;;;;;2.83;1.60;;;26.60;53.90;;;;;;10070457;28;20040;-63
2022/05/12 11:18:44;;;;;;;4.65;1.70;;;27.00;53.50;;;;;;10065552;28;20029;-63
2022/05/12 11:24:11;;;;;;;1.83;1.30;;;26.80;53.70;;;;;;10080419;28;20045;-65
2022/05/12 11:29:43;;;;;;;2.83;1.42;;;26.50;54.00;;;;;;10066495;28;20484;-62
2022/05/12 11:34:37;;;;;;;2.90;1.95;;;26.80;53.80;;;;;;10091542;28;20036;-64
2022/05/12 11:39:54;;;;;;;2.73;1.80;;;26.80;53.90;;;;;;10091708;28;20041;-69
2022/05/12 11:45:05;;;;;;;3.30;1.70;;;27.00;53.70;;;;;;10080704;28;20026;-65
2022/05/12 11:50:26;;;;;;;4.28;2.00;;;27.10;53.40;;;;;;10088659;28;20466;-64
2022/05/12 11:55:23;;;;;;;2.47;1.88;;;27.30;53.20;;;;;;10078778;28;20131;-64
2022/05/12 12:00:34;;;;;;;2.95;1.70;;;27.30;53.10;;;;;;10085566;28;20497;-64
2022/05/12 12:05:29;;;;;;;2.65;1.58;;;27.30;52.80;;;;;;10058113;28;20589;-62
2022/05/12 12:10:23;;;;;;;4.72;2.25;;;27.60;52.80;;;;;;10069757;28;20021;-62
2022/05/12 12:15:44;;;;;;;3.50;1.70;;;27.30;52.90;;;;;;10075024;28;20399;-64
2022/05/12 12:20:56;;;;;;;2.50;1.73;;;27.00;53.10;;;;;;10077045;28;20040;-64
2022/05/12 12:25:59;;;;;;;4.35;2.75;;;26.70;53.20;;;;;;10072687;28;20518;-67
2022/05/12 12:30:58;;;;;;;4.50;2.17;;;26.40;53.20;;;;;;10063185;28;20253;-61
2022/05/12 12:36:15;;;;;;;3.15;2.40;;;26.30;53.20;;;;;;10083898;28;20486;-63
2022/05/12 12:41:05;;;;;;;4.07;1.90;;;26.70;52.90;;;;;;10071047;28;20545;-65
2022/05/12 12:45:57;;;;;;;3.10;2.10;;;26.60;52.90;;;;;;10064504;28;20029;-65
2022/05/12 12:50:53;;;;;;;2.55;1.95;;;26.50;53.40;;;;;;10079305;28;20475;-65
2022/05/12 13:01:02;;;;;;;2.60;2.40;;;26.40;53.50;;;;;;10084324;28;20087;-64
2022/05/12 13:06:14;;;;;;;3.25;2.10;;;26.50;53.20;;;;;;10085974;28;20567;-61
2022/05/12 13:11:06;;;;;;;3.33;2.20;;;26.40;53.10;;;;;;10102963;28;20051;-64
2022/05/12 13:16:04;;;;;;;4.95;3.08;;;26.30;53.30;;;;;;10092886;28;20104;-65
2022/05/12 13:20:54;;;;;;;2.72;1.60;;;26.20;53.60;;;;;;10098534;28;20108;-64
2022/05/12 13:25:48;;;;;;;7.85;2.60;;;26.20;53.70;;;;;;10099197;28;20139;-66
2022/05/12 13:30:45;;;;;;;3.83;1.57;;;26.30;53.60;;;;;;10098445;28;20107;-63
2022/05/12 13:35:36;;;;;;;3.47;2.40;;;26.40;53.60;;;;;;10098368;28;20045;-60
2022/05/12 13:40:41;;;;;;;5.38;2.70;;;26.30;53.40;;;;;;10098022;28;20021;-61
2022/05/12 13:45:32;;;;;;;;;;;26.20;53.20;;;;;;10087264;28;20040;-61
2022/05/12 13:50:44;;;;;;;5.25;2.38;;;26.10;53.10;;;;;;10098217;28;19936;-66
2022/05/12 13:55:34;;;;;;;3.58;2.20;;;26.00;53.20;;;;;;10084165;28;20581;-64
2022/05/12 14:00:28;;;;;;;4.13;2.22;;;25.90;53.20;;;;;;10075397;28;20025;-67
2022/05/12 14:05:19;;;;;;;2.83;2.53;;;25.70;53.20;;;;;;10078920;28;20037;-65
2022/05/12 14:10:12;;;;;;;3.10;2.00;;;25.60;53.20;;;;;;10097019;28;20029;-67
2022/05/12 14:20:19;;;;;;;4.65;2.40;;;25.70;53.00;;;;;;10088056;28;20087;-60
2022/05/12 14:25:14;;;;;;;4.78;2.20;;;25.60;53.20;;;;;;10087287;28;20187;-61
2022/05/12 14:30:06;;;;;;;3.53;2.13;;;25.60;53.50;;;;;;10096606;28;20024;-61
2022/05/12 14:34:57;;;;;;;3.53;2.47;;;25.50;53.80;;;;;;10098660;28;20185;-63
2022/05/12 14:39:48;;;;;;;2.42;2.17;;;25.60;53.90;;;;;;10112025;28;20253;-63
2022/05/12 14:44:41;;;;;;;3.33;2.22;;;25.40;54.30;;;;;;10104404;28;20075;-63
2022/05/12 14:49:44;;;;;;;6.28;2.03;;;25.20;54.50;;;;;;10095827;28;20545;-67
2022/05/12 14:54:35;;;;;;;5.80;2.80;;;25.20;54.70;;;;;;10095135;28;20040;-68
2022/05/12 14:59:26;;;;;;;3.90;1.70;;;25.10;55.00;;;;;;10091712;28;20033;-61
2022/05/12 15:04:16;;;;;;;2.83;2.30;;;25.00;55.20;;;;;;10094854;28;20021;-63
2022/05/12 15:09:12;;;;;;;2.70;1.55;;;24.90;55.70;;;;;;10090690;28;20032;-66
2022/05/12 15:14:02;;;;;;;1.30;1.17;;;24.60;56.70;;;;;;10093701;28;20028;-66
2022/05/12 15:18:53;;;;;;;2.17;1.95;;;24.50;57.30;;;;;;10093118;28;20477;-62
2022/05/12 15:23:44;;;;;;;4.00;2.10;;;24.50;57.20;;;;;;10093423;28;20040;-63
2022/05/12 15:28:38;;;;;;;3.17;1.90;;;24.30;57.90;;;;;;10092794;28;20044;-68
2022/05/12 15:33:29;;;;;;;2.20;2.00;;;24.20;58.20;;;;;;10092536;28;20117;-67
2022/05/12 15:38:19;;;;;;;4.50;2.17;;;24.20;58.90;;;;;;10093138;28;20485;-63
2022/05/12 15:43:11;;;;;;;2.90;1.77;;;24.10;59.10;;;;;;10091038;28;20952;-64
2022/05/12 15:48:01;;;;;;;4.45;2.40;;;23.90;59.90;;;;;;10087416;28;20043;-63
2022/05/12 15:52:52;;;;;;;2.00;1.60;;;23.80;60.80;;;;;;10080844;28;20010;-60
2022/05/12 15:57:43;;;;;;;4.10;2.30;;;23.60;61.80;;;;;;10089288;28;20055;-64
2022/05/12 16:02:34;;;;;;;3.35;2.30;;;23.50;62.80;;;;;;10095393;28;20449;-60
2022/05/12 16:07:25;;;;;;;3.15;2.30;;;23.30;63.80;;;;;;10074087;28;20031;-61
2022/05/12 16:17:21;;;;;;;2.45;2.20;;;23.30;65.50;;;;;;10068671;28;20044;-64
2022/05/12 16:22:11;;;;;;;5.15;2.60;;;23.30;66.10;;;;;;10082011;28;20045;-59
2022/05/12 16:27:05;;;;;;;4.05;2.67;;;23.20;66.60;;;;;;10058239;28;20021;-62
2022/05/12 16:31:56;;;;;;;4.22;2.20;;;23.30;66.90;;;;;;10076394;28;20498;-62
2022/05/12 16:36:51;;;;;;;7.07;2.47;;;23.40;67.00;;;;;;10096534;28;20060;-64
2022/05/12 16:41:42;;;;;;;4.03;3.42;;;23.60;67.10;;;;;;10086194;28;20026;-61
2022/05/12 16:46:32;;;;;;;4.03;2.70;;;23.60;67.30;;;;;;10071088;28;20025;-63
2022/05/12 16:51:23;;;;;;;5.07;3.03;;;23.90;67.30;;;;;;10076989;28;20029;-61
2022/05/12 16:56:14;;;;;;;6.10;3.33;;;24.00;67.50;;;;;;10090720;28;20364;-62
2022/05/12 17:01:05;;;;;;;7.00;3.47;;;23.80;69.00;;;;;;10092805;28;20029;-64
2022/05/12 17:05:57;;;;;;;5.72;3.25;;;23.70;69.90;;;;;;10080078;28;20028;-62
2022/05/12 17:10:48;;;;;;;5.82;3.33;;;23.80;70.30;;;;;;10086365;28;20482;-63
2022/05/12 17:15:38;;;;;;;6.80;3.22;;;23.70;71.10;;;;;;10082830;28;20037;-61
2022/05/12 17:20:29;;;;;;;8.30;4.03;;;23.50;72.10;;;;;;10075923;28;20017;-64
2022/05/12 17:25:20;;;;;;;5.20;3.67;;;23.50;72.60;;;;;;10081804;28;20184;-68
2022/05/12 17:30:12;;;;;;;5.38;3.63;;;23.50;72.80;;;;;;10086187;28;20032;-74
2022/05/12 17:35:03;;;;;;;4.72;3.38;;;23.70;72.90;;;;;;10092645;28;20047;-68
2022/05/12 17:39:55;;;;;;;5.45;3.30;;;23.50;74.00;;;;;;10059595;28;20042;-69
2022/05/12 17:44:46;;;;;;;4.70;3.15;;;23.50;74.30;;;;;;10070091;28;20400;-66
2022/05/12 17:49:38;;;;;;;4.90;3.10;;;23.50;74.70;;;;;;10071233;28;20021;-69
2022/05/12 17:54:29;;;;;;;7.50;2.92;;;23.40;75.10;;;;;;10089197;28;20024;-70
2022/05/12 17:59:20;;;;;;;5.40;3.88;;;23.10;76.10;;;;;;10090444;28;20387;-71
2022/05/12 18:04:10;;;;;;;7.20;4.90;;;23.20;76.10;;;;;;10080419;28;20132;-76
2022/05/12 18:09:01;;;;;;;5.97;3.88;;;23.10;76.50;;;;;;10069485;28;20022;-67
2022/05/12 18:13:52;;;;;;;7.63;3.40;;;23.10;76.80;;;;;;10077241;28;20025;-70
2022/05/12 18:18:45;;;;;;;7.07;3.65;;;23.10;76.60;;;;;;10074029;28;20033;-67
2022/05/12 18:23:37;;;;;;;6.22;4.85;;;23.10;76.60;;;;;;10080993;28;20041;-68
2022/05/12 18:28:28;;;;;;;4.53;3.20;;;23.20;76.50;;;;;;10062694;28;20040;-67
2022/05/12 18:33:19;;;;;;;5.35;3.00;;;23.10;76.40;;;;;;10096168;28;20421;-66
2022/05/12 18:38:14;;;;;;;5.70;3.40;;;23.00;77.20;;;;;;10085690;28;20072;-70
2022/05/12 18:43:05;;;;;;;3.40;2.50;;;23.10;76.40;;;;;;10074717;28;20454;-66
2022/05/12 18:47:57;;;;;;;2.45;2.25;;;23.10;76.20;;;;;;10070666;28;20029;-69
2022/05/12 18:52:47;;;;;;;3.65;2.22;;;23.10;76.30;;;;;;10086879;28;20021;-71
2022/05/12 18:57:38;;;;;;;3.17;2.60;;;23.00;76.60;;;;;;10094417;28;20425;-67
2022/05/12 19:02:29;;;;;;;3.38;2.28;;;23.00;76.50;;;;;;10090625;28;20019;-65
2022/05/12 19:07:25;;;;;;;3.45;2.88;;;23.00;76.50;;;;;;10063803;28;20039;-67
2022/05/12 19:12:25;;;;;;;3.42;2.83;;;22.90;76.60;;;;;;10086112;28;20024;-66
2022/05/12 19:17:16;;;;;;;4.00;2.95;;;22.80;76.80;;;;;;10074462;28;20040;-70
2022/05/12 19:22:06;;;;;;;4.80;3.33;;;22.80;77.00;;;;;;10089095;28;20059;-73
2022/05/12 19:26:58;;;;;;;5.85;3.22;;;22.90;77.10;;;;;;10067630;28;20041;-68
2022/05/12 19:31:51;;;;;;;4.22;2.83;;;22.90;77.50;;;;;;10071812;28;20577;-70
2022/05/12 19:36:42;;;;;;;5.85;3.25;;;22.80;77.80;;;;;;10094298;28;20072;-76
2022/05/12 19:41:33;;;;;;;5.32;3.45;;;22.90;78.40;;;;;;10091550;28;20033;-69
2022/05/12 19:46:24;;;;;;;5.78;3.45;;;22.80;78.70;;;;;;10071611;28;20071;-67
2022/05/12 19:51:15;;;;;;;3.58;2.90;;;22.80;79.10;;;;;;10090167;28;20025;-70
2022/05/12 19:56:06;;;;;;;4.35;3.05;;;22.80;79.20;;;;;;10084904;28;20295;-70
2022/05/12 20:00:56;;;;;;;6.00;3.40;;;22.90;79.60;;;;;;10086091;28;20558;-68
2022/05/12 20:05:47;;;;;;;5.60;3.00;;;23.00;79.70;;;;;;10076008;28;20188;-66
2022/05/12 20:10:38;;;;;;;3.78;3.45;;;22.90;80.30;;;;;;10075231;28;20104;-68
2022/05/12 20:15:28;;;;;;;8.57;4.43;;;22.70;81.00;;;;;;10074634;28;20124;-66
2022/05/12 20:20:22;;;;;;;5.75;3.67;;;22.70;81.70;;;;;;10074651;28;20045;-70
2022/05/12 20:25:13;;;;;;;5.50;3.40;;;22.60;82.30;;;;;;10073459;28;20086;-70
2022/05/12 20:30:06;;;;;;;5.30;3.40;;;22.60;82.60;;;;;;10069358;28;20609;-68
2022/05/12 20:34:58;;;;;;;6.30;4.03;;;22.60;82.90;;;;;;10091011;28;20034;-68
2022/05/12 20:39:49;;;;;;;8.25;3.97;;;22.50;83.60;;;;;;10071811;28;20029;-71
2022/05/12 20:44:40;;;;;;;6.85;5.40;;;22.50;83.80;;;;;;10069052;28;20021;-71
2022/05/12 20:49:30;;;;;;;5.30;3.92;;;22.40;84.40;;;;;;10070982;28;20226;-71
2022/05/12 20:54:21;;;;;;;7.18;3.88;;;22.40;84.40;;;;;;10082683;28;20036;-71
2022/05/12 20:59:12;;;;;;;5.55;4.30;;;22.20;85.40;;;;;;10089153;28;20041;-71
2022/05/12 21:04:03;;;;;;;5.97;4.18;;;22.10;85.80;;;;;;10079575;28;20033;-66
2022/05/12 21:09:33;;;;;;;5.32;4.10;;;22.20;85.80;;;;;;10083312;28;20036;-67
2022/05/12 21:14:47;;;;;;;6.80;3.97;;;22.30;86.70;;;;;;10056900;28;20510;-72
2022/05/12 21:19:38;;;;;;;8.02;4.07;;;22.30;86.70;;;;;;10089169;28;20079;-68
2022/05/12 21:24:30;;;;;;;6.15;4.07;;;22.40;86.40;;;;;;10103795;28;20082;-68
2022/05/12 21:29:21;;;;;;;5.72;3.65;;;22.20;87.30;;;;;;10100104;28;20533;-67
2022/05/12 21:34:11;;;;;;;8.73;4.20;;;22.20;87.60;;;;;;10103587;28;20202;-67
2022/05/12 21:39:02;;;;;;;5.18;4.10;;;22.10;87.90;;;;;;10099508;28;20494;-65
2022/05/12 21:43:53;;;;;;;4.53;3.72;;;22.20;87.90;;;;;;10091224;28;20040;-70
2022/05/12 21:48:44;;;;;;;5.63;3.92;;;22.20;88.50;;;;;;10098982;28;20078;-67
2022/05/12 21:53:36;;;;;;;9.20;4.32;;;22.20;88.20;;;;;;10099655;28;20025;-71
2022/05/12 22:03:42;;;;;;;6.95;3.63;;;22.10;88.50;;;;;;10094223;28;20263;-68
2022/05/12 22:08:34;;;;;;;7.25;3.80;;;22.10;88.50;;;;;;10084531;28;20117;-67
2022/05/12 22:13:24;;;;;;;5.85;3.25;;;22.20;88.30;;;;;;10083507;28;20091;-71
2022/05/12 22:18:16;;;;;;;6.60;5.20;;;22.10;88.50;;;;;;10070379;28;20320;-67
2022/05/12 22:23:08;;;;;;;13.05;4.90;;;22.00;88.80;;;;;;10086007;28;20064;-69
2022/05/12 22:27:59;;;;;;;7.38;4.25;;;21.90;89.10;;;;;;10059938;28;20025;-67
2022/05/12 22:32:49;;;;;;;6.80;4.57;;;21.80;89.90;;;;;;10079370;28;20013;-66
2022/05/12 22:37:41;;;;;;;5.93;4.85;;;21.90;89.40;;;;;;10091546;28;20503;-66
2022/05/12 22:42:31;;;;;;;6.40;5.03;;;21.80;89.70;;;;;;10094908;28;20021;-66
2022/05/12 22:47:22;;;;;;;6.70;4.18;;;21.90;89.70;;;;;;10097029;28;20029;-66
2022/05/12 22:52:13;;;;;;;6.75;4.05;;;21.80;90.00;;;;;;10087263;28;20041;-66
2022/05/12 22:57:05;;;;;;;7.28;4.25;;;21.80;90.00;;;;;;10095331;28;20111;-66
2022/05/12 23:01:55;;;;;;;7.57;4.25;;;21.80;90.10;;;;;;10089599;28;20017;-66
2022/05/12 23:06:46;;;;;;;5.93;4.53;;;21.70;90.20;;;;;;10083416;28;20491;-66
2022/05/12 23:11:38;;;;;;;7.85;4.32;;;21.70;90.20;;;;;;10084132;28;20363;-66
2022/05/12 23:16:29;;;;;;;7.28;4.88;;;21.70;90.30;;;;;;10072806;28;20136;-67
2022/05/12 23:26:29;;;;;;;8.55;4.35;;;21.70;90.40;;;;;;10059515;28;20056;-68
2022/05/12 23:31:20;;;;;;;7.05;4.85;;;21.60;90.60;;;;;;10093574;28;20364;-67
2022/05/12 23:36:10;;;;;;;4.80;4.10;;;21.60;90.60;;;;;;10085114;28;20500;-65
2022/05/12 23:41:01;;;;;;;5.88;4.35;;;21.70;90.60;;;;;;10077568;28;20016;-65
2022/05/12 23:45:52;;;;;;;8.90;4.53;;;21.60;90.70;;;;;;10066438;28;20048;-69
2022/05/12 23:50:42;;;;;;;9.30;4.35;;;21.60;90.80;;;;;;10070740;28;20476;-71
2022/05/12 23:55:33;;;;;;;6.05;4.70;;;21.50;91.00;;;;;;10083091;28;20048;-65
